sensor_id;sensor_type;location;lat;lon;timestamp;temperature;humidity
15969;DHT22;8085;53.472;9.794;2024-01-15T00:00:04;1.50;99.90
15969;DHT22;8085;53.472;9.794;2024-01-15T00:03:07;1.50;99.90
15969;DHT22;8085;53.472;9.794;2024-01-15T00:05:40;1.50;99.90
15969;DHT22;8085;53.472;9.794;2024-01-15T00:08:07;1.50;99.90
15969;DHT22;8085;53.472;9.794;2024-01-15T00:10:38;1.50;99.90
15969;DHT22;8085;53.472;9.794;2024-01-15T00:13:07;1.40;99.90
15969;DHT22;8085;53.472;9.794;2024-01-15T00:15:37;1.50;99.90
15969;DHT22;8085;53.472;9.794;2024-01-15T00:18:12;1.50;99.90
15969;DHT22;8085;53.472;9.794;2024-01-15T00:20:40;1.50;99.90
15969;DHT22;8085;53.472;9.794;2024-01-15T00:23:09;1.50;99.90
15969;DHT22;8085;53.472;9.794;2024-01-15T00:25:41;1.50;99.90
15969;DHT22;8085;53.472;9.794;2024-01-15T00:28:17;1.50;99.90
15969;DHT22;8085;53.472;9.794;2024-01-15T00:30:45;1.40;99.90
15969;DHT22;8085;53.472;9.794;2024-01-15T00:33:13;1.40;99.90
15969;DHT22;8085;53.472;9.794;2024-01-15T00:35:40;1.40;99.90
15969;DHT22;8085;53.472;9.794;2024-01-15T00:38:07;1.40;99.90
15969;DHT22;8085;53.472;9.794;2024-01-15T00:40:34;1.40;99.90
15969;DHT22;8085;53.472;9.794;2024-01-15T00:43:01;1.40;99.90
15969;DHT22;8085;53.472;9.794;2024-01-15T00:45:29;1.30;99.90
15969;DHT22;8085;53.472;9.794;2024-01-15T00:47:55;1.30;99.90
15969;DHT22;8085;53.472;9.794;2024-01-15T00:50:26;1.40;99.90
15969;DHT22;8085;53.472;9.794;2024-01-15T00:52:53;1.40;99.90
15969;DHT22;8085;53.472;9.794;2024-01-15T00:55:20;1.40;99.90
15969;DHT22;8085;53.472;9.794;2024-01-15T00:57:47;1.40;99.90
15969;DHT22;8085;53.472;9.794;2024-01-15T01:00:14;1.40;99.90
15969;DHT22;8085;53.472;9.794;2024-01-15T01:02:41;1.40;99.90
15969;DHT22;8085;53.472;9.794;2024-01-15T01:05:08;1.50;99.90
15969;DHT22;8085;53.472;9.794;2024-01-15T01:07:37;1.50;99.90
15969;DHT22;8085;53.472;9.794;2024-01-15T01:10:04;1.50;99.90
15969;DHT22;8085;53.472;9.794;2024-01-15T01:12:32;1.60;99.90
15969;DHT22;8085;53.472;9.794;2024-01-15T01:14:59;1.60;99.90
15969;DHT22;8085;53.472;9.794;2024-01-15T01:17:26;1.60;99.90
15969;DHT22;8085;53.472;9.794;2024-01-15T01:19:53;1.70;99.90
15969;DHT22;8085;53.472;9.794;2024-01-15T01:22:19;1.70;99.90
15969;DHT22;8085;53.472;9.794;2024-01-15T01:24:48;1.70;99.90
15969;DHT22;8085;53.472;9.794;2024-01-15T01:27:15;1.70;99.90
15969;DHT22;8085;53.472;9.794;2024-01-15T01:29:42;1.70;99.90
15969;DHT22;8085;53.472;9.794;2024-01-15T01:32:08;1.70;99.90
15969;DHT22;8085;53.472;9.794;2024-01-15T01:34:40;1.70;99.90
15969;DHT22;8085;53.472;9.794;2024-01-15T01:37:07;1.70;99.90
15969;DHT22;8085;53.472;9.794;2024-01-15T01:39:34;1.80;99.90
15969;DHT22;8085;53.472;9.794;2024-01-15T01:42:03;1.70;99.90
15969;DHT22;8085;53.472;9.794;2024-01-15T01:44:30;1.70;99.90
15969;DHT22;8085;53.472;9.794;2024-01-15T01:46:57;1.70;99.90
15969;DHT22;8085;53.472;9.794;2024-01-15T01:49:26;1.80;99.90
15969;DHT22;8085;53.472;9.794;2024-01-15T01:51:57;1.70;99.90
15969;DHT22;8085;53.472;9.794;2024-01-15T01:54:26;1.70;99.90
15969;DHT22;8085;53.472;9.794;2024-01-15T01:57:11;1.60;99.90
15969;DHT22;8085;53.472;9.794;2024-01-15T01:59:59;1.50;99.90
15969;DHT22;8085;53.472;9.794;2024-01-15T02:02:45;1.60;99.90
15969;DHT22;8085;53.472;9.794;2024-01-15T02:06:02;1.50;99.90
15969;DHT22;8085;53.472;9.794;2024-01-15T02:08:34;1.60;99.90
15969;DHT22;8085;53.472;9.794;2024-01-15T02:11:21;1.50;99.90
15969;DHT22;8085;53.472;9.794;2024-01-15T02:14:00;1.50;99.90
15969;DHT22;8085;53.472;9.794;2024-01-15T02:16:43;1.50;99.90
15969;DHT22;8085;53.472;9.794;2024-01-15T02:19:29;1.50;99.90
15969;DHT22;8085;53.472;9.794;2024-01-15T02:22:05;1.60;99.90
15969;DHT22;8085;53.472;9.794;2024-01-15T02:24:33;1.70;99.90
15969;DHT22;8085;53.472;9.794;2024-01-15T02:27:00;1.70;99.90
15969;DHT22;8085;53.472;9.794;2024-01-15T02:29:26;1.80;99.90
15969;DHT22;8085;53.472;9.794;2024-01-15T02:31:53;1.70;99.90
15969;DHT22;8085;53.472;9.794;2024-01-15T02:34:20;1.70;99.90
15969;DHT22;8085;53.472;9.794;2024-01-15T02:36:47;1.70;99.90
15969;DHT22;8085;53.472;9.794;2024-01-15T02:39:14;1.70;99.90
15969;DHT22;8085;53.472;9.794;2024-01-15T02:41:42;1.80;99.90
15969;DHT22;8085;53.472;9.794;2024-01-15T02:44:09;1.70;99.90
15969;DHT22;8085;53.472;9.794;2024-01-15T02:46:36;1.80;99.90
15969;DHT22;8085;53.472;9.794;2024-01-15T02:49:03;1.70;99.90
15969;DHT22;8085;53.472;9.794;2024-01-15T02:51:29;1.70;99.90
15969;DHT22;8085;53.472;9.794;2024-01-15T02:53:56;1.80;99.90
15969;DHT22;8085;53.472;9.794;2024-01-15T02:56:23;1.80;99.90
15969;DHT22;8085;53.472;9.794;2024-01-15T02:58:51;1.80;99.90
15969;DHT22;8085;53.472;9.794;2024-01-15T03:01:19;1.80;99.90
15969;DHT22;8085;53.472;9.794;2024-01-15T03:03:46;2.00;99.90
15969;DHT22;8085;53.472;9.794;2024-01-15T03:06:13;1.80;99.90
15969;DHT22;8085;53.472;9.794;2024-01-15T03:08:40;1.70;99.90
15969;DHT22;8085;53.472;9.794;2024-01-15T03:11:07;1.70;99.90
15969;DHT22;8085;53.472;9.794;2024-01-15T03:13:36;1.80;99.90
15969;DHT22;8085;53.472;9.794;2024-01-15T03:16:05;1.70;99.90
15969;DHT22;8085;53.472;9.794;2024-01-15T03:18:32;1.80;99.90
15969;DHT22;8085;53.472;9.794;2024-01-15T03:20:59;1.80;99.90
15969;DHT22;8085;53.472;9.794;2024-01-15T03:23:26;1.90;99.90
15969;DHT22;8085;53.472;9.794;2024-01-15T03:25:53;1.80;99.90
15969;DHT22;8085;53.472;9.794;2024-01-15T03:28:37;1.90;99.90
15969;DHT22;8085;53.472;9.794;2024-01-15T03:31:45;1.90;99.90
15969;DHT22;8085;53.472;9.794;2024-01-15T03:34:45;1.90;99.90
15969;DHT22;8085;53.472;9.794;2024-01-15T03:37:29;2.10;99.90
15969;DHT22;8085;53.472;9.794;2024-01-15T03:40:11;2.00;99.90
15969;DHT22;8085;53.472;9.794;2024-01-15T03:42:40;2.00;99.90
15969;DHT22;8085;53.472;9.794;2024-01-15T03:45:55;2.00;99.90
15969;DHT22;8085;53.472;9.794;2024-01-15T03:49:04;2.00;99.90
15969;DHT22;8085;53.472;9.794;2024-01-15T03:51:44;2.00;99.90
15969;DHT22;8085;53.472;9.794;2024-01-15T03:57:10;1.90;99.90
15969;DHT22;8085;53.472;9.794;2024-01-15T04:00:34;1.90;99.90
15969;DHT22;8085;53.472;9.794;2024-01-15T04:03:13;1.90;99.90
15969;DHT22;8085;53.472;9.794;2024-01-15T04:05:41;1.90;99.90
15969;DHT22;8085;53.472;9.794;2024-01-15T04:08:08;1.90;99.90
15969;DHT22;8085;53.472;9.794;2024-01-15T04:10:35;1.90;99.90
15969;DHT22;8085;53.472;9.794;2024-01-15T04:13:02;1.90;99.90
15969;DHT22;8085;53.472;9.794;2024-01-15T04:15:29;1.90;99.90
15969;DHT22;8085;53.472;9.794;2024-01-15T04:17:56;2.00;99.90
15969;DHT22;8085;53.472;9.794;2024-01-15T04:20:23;1.90;99.90
15969;DHT22;8085;53.472;9.794;2024-01-15T04:22:51;1.90;99.90
15969;DHT22;8085;53.472;9.794;2024-01-15T04:25:18;2.00;99.90
15969;DHT22;8085;53.472;9.794;2024-01-15T04:27:45;1.90;99.90
15969;DHT22;8085;53.472;9.794;2024-01-15T04:30:12;1.90;99.90
15969;DHT22;8085;53.472;9.794;2024-01-15T04:32:39;1.80;99.90
15969;DHT22;8085;53.472;9.794;2024-01-15T04:35:09;1.90;99.90
15969;DHT22;8085;53.472;9.794;2024-01-15T04:37:36;1.90;99.90
15969;DHT22;8085;53.472;9.794;2024-01-15T04:40:06;1.90;99.90
15969;DHT22;8085;53.472;9.794;2024-01-15T04:42:33;1.90;99.90
15969;DHT22;8085;53.472;9.794;2024-01-15T04:45:00;1.90;99.90
15969;DHT22;8085;53.472;9.794;2024-01-15T04:47:27;2.00;99.90
15969;DHT22;8085;53.472;9.794;2024-01-15T04:49:54;1.90;99.90
15969;DHT22;8085;53.472;9.794;2024-01-15T04:52:21;1.90;99.90
15969;DHT22;8085;53.472;9.794;2024-01-15T04:54:48;1.90;99.90
15969;DHT22;8085;53.472;9.794;2024-01-15T04:57:16;2.00;99.90
15969;DHT22;8085;53.472;9.794;2024-01-15T04:59:43;1.90;99.90
15969;DHT22;8085;53.472;9.794;2024-01-15T05:02:10;1.90;99.90
15969;DHT22;8085;53.472;9.794;2024-01-15T05:04:37;1.90;99.90
15969;DHT22;8085;53.472;9.794;2024-01-15T05:07:04;1.80;99.90
15969;DHT22;8085;53.472;9.794;2024-01-15T05:09:31;1.90;99.90
15969;DHT22;8085;53.472;9.794;2024-01-15T05:11:58;1.80;99.90
15969;DHT22;8085;53.472;9.794;2024-01-15T05:14:26;1.90;99.90
15969;DHT22;8085;53.472;9.794;2024-01-15T05:16:54;1.90;99.90
15969;DHT22;8085;53.472;9.794;2024-01-15T05:19:43;1.90;99.90
15969;DHT22;8085;53.472;9.794;2024-01-15T05:22:52;1.90;99.90
15969;DHT22;8085;53.472;9.794;2024-01-15T05:25:43;1.90;99.90
15969;DHT22;8085;53.472;9.794;2024-01-15T05:28:33;2.00;99.90
15969;DHT22;8085;53.472;9.794;2024-01-15T05:31:47;1.90;99.90
15969;DHT22;8085;53.472;9.794;2024-01-15T05:34:22;1.90;99.90
15969;DHT22;8085;53.472;9.794;2024-01-15T05:37:11;2.00;99.90
15969;DHT22;8085;53.472;9.794;2024-01-15T05:40:25;1.90;99.90
15969;DHT22;8085;53.472;9.794;2024-01-15T05:42:54;1.90;99.90
15969;DHT22;8085;53.472;9.794;2024-01-15T05:46:02;2.00;99.90
15969;DHT22;8085;53.472;9.794;2024-01-15T05:52:58;2.00;99.90
15969;DHT22;8085;53.472;9.794;2024-01-15T05:55:31;2.00;99.90
15969;DHT22;8085;53.472;9.794;2024-01-15T05:57:58;2.10;99.90
15969;DHT22;8085;53.472;9.794;2024-01-15T06:00:24;2.10;99.90
15969;DHT22;8085;53.472;9.794;2024-01-15T06:02:51;2.20;99.90
15969;DHT22;8085;53.472;9.794;2024-01-15T06:05:18;2.20;99.90
15969;DHT22;8085;53.472;9.794;2024-01-15T06:07:45;2.10;99.90
15969;DHT22;8085;53.472;9.794;2024-01-15T06:10:13;2.10;99.90
15969;DHT22;8085;53.472;9.794;2024-01-15T06:12:42;2.10;99.90
15969;DHT22;8085;53.472;9.794;2024-01-15T06:15:10;2.10;99.90
15969;DHT22;8085;53.472;9.794;2024-01-15T06:17:37;2.10;99.90
15969;DHT22;8085;53.472;9.794;2024-01-15T06:20:05;2.10;99.90
15969;DHT22;8085;53.472;9.794;2024-01-15T06:22:32;2.10;99.90
15969;DHT22;8085;53.472;9.794;2024-01-15T06:24:59;2.10;99.90
15969;DHT22;8085;53.472;9.794;2024-01-15T06:27:27;2.10;99.90
15969;DHT22;8085;53.472;9.794;2024-01-15T06:29:54;2.00;99.90
15969;DHT22;8085;53.472;9.794;2024-01-15T06:32:22;2.10;99.90
15969;DHT22;8085;53.472;9.794;2024-01-15T06:34:50;2.10;99.90
15969;DHT22;8085;53.472;9.794;2024-01-15T06:37:20;2.10;99.90
15969;DHT22;8085;53.472;9.794;2024-01-15T06:39:48;2.00;99.90
15969;DHT22;8085;53.472;9.794;2024-01-15T06:42:15;2.00;99.90
15969;DHT22;8085;53.472;9.794;2024-01-15T06:44:44;2.00;99.90
15969;DHT22;8085;53.472;9.794;2024-01-15T06:47:11;2.00;99.90
15969;DHT22;8085;53.472;9.794;2024-01-15T06:49:39;2.20;99.90
15969;DHT22;8085;53.472;9.794;2024-01-15T06:52:06;2.00;99.90
15969;DHT22;8085;53.472;9.794;2024-01-15T06:54:33;2.00;99.90
15969;DHT22;8085;53.472;9.794;2024-01-15T06:57:00;1.90;99.90
15969;DHT22;8085;53.472;9.794;2024-01-15T06:59:29;2.00;99.90
15969;DHT22;8085;53.472;9.794;2024-01-15T07:02:07;1.90;99.90
15969;DHT22;8085;53.472;9.794;2024-01-15T07:04:34;1.90;99.90
15969;DHT22;8085;53.472;9.794;2024-01-15T07:07:01;2.00;99.90
15969;DHT22;8085;53.472;9.794;2024-01-15T07:09:28;2.00;99.90
15969;DHT22;8085;53.472;9.794;2024-01-15T07:11:55;2.00;99.90
15969;DHT22;8085;53.472;9.794;2024-01-15T07:14:23;2.00;99.90
15969;DHT22;8085;53.472;9.794;2024-01-15T07:16:50;2.00;99.90
15969;DHT22;8085;53.472;9.794;2024-01-15T07:19:18;1.90;99.90
15969;DHT22;8085;53.472;9.794;2024-01-15T07:21:45;2.10;99.90
15969;DHT22;8085;53.472;9.794;2024-01-15T07:24:12;1.90;99.90
15969;DHT22;8085;53.472;9.794;2024-01-15T07:26:39;2.00;99.90
15969;DHT22;8085;53.472;9.794;2024-01-15T07:29:06;2.00;99.90
15969;DHT22;8085;53.472;9.794;2024-01-15T07:31:34;2.10;99.90
15969;DHT22;8085;53.472;9.794;2024-01-15T07:34:02;2.10;99.90
15969;DHT22;8085;53.472;9.794;2024-01-15T07:36:33;2.10;99.90
15969;DHT22;8085;53.472;9.794;2024-01-15T07:39:03;2.20;99.90
15969;DHT22;8085;53.472;9.794;2024-01-15T07:41:41;2.20;99.90
15969;DHT22;8085;53.472;9.794;2024-01-15T07:44:12;2.20;99.90
15969;DHT22;8085;53.472;9.794;2024-01-15T07:46:47;2.30;99.90
15969;DHT22;8085;53.472;9.794;2024-01-15T07:49:13;2.20;99.90
15969;DHT22;8085;53.472;9.794;2024-01-15T07:51:49;2.20;99.90
15969;DHT22;8085;53.472;9.794;2024-01-15T07:54:16;2.20;99.90
15969;DHT22;8085;53.472;9.794;2024-01-15T07:56:55;2.10;99.90
15969;DHT22;8085;53.472;9.794;2024-01-15T07:59:23;2.10;99.90
15969;DHT22;8085;53.472;9.794;2024-01-15T08:01:50;2.00;99.90
15969;DHT22;8085;53.472;9.794;2024-01-15T08:04:17;2.20;99.90
15969;DHT22;8085;53.472;9.794;2024-01-15T08:06:45;2.00;99.90
15969;DHT22;8085;53.472;9.794;2024-01-15T08:09:13;2.00;99.90
15969;DHT22;8085;53.472;9.794;2024-01-15T08:11:40;2.00;99.90
15969;DHT22;8085;53.472;9.794;2024-01-15T08:14:08;2.00;99.90
15969;DHT22;8085;53.472;9.794;2024-01-15T08:16:35;1.90;99.90
15969;DHT22;8085;53.472;9.794;2024-01-15T08:19:05;1.90;99.90
15969;DHT22;8085;53.472;9.794;2024-01-15T08:21:32;1.90;99.90
15969;DHT22;8085;53.472;9.794;2024-01-15T08:24:00;1.80;99.90
15969;DHT22;8085;53.472;9.794;2024-01-15T08:26:29;1.80;99.90
15969;DHT22;8085;53.472;9.794;2024-01-15T08:28:57;1.80;99.90
15969;DHT22;8085;53.472;9.794;2024-01-15T08:31:24;1.80;99.90
15969;DHT22;8085;53.472;9.794;2024-01-15T08:33:59;1.80;99.90
15969;DHT22;8085;53.472;9.794;2024-01-15T08:36:27;1.80;99.90
15969;DHT22;8085;53.472;9.794;2024-01-15T08:39:03;1.80;99.90
15969;DHT22;8085;53.472;9.794;2024-01-15T08:41:41;1.70;99.90
15969;DHT22;8085;53.472;9.794;2024-01-15T08:44:08;1.80;99.90
15969;DHT22;8085;53.472;9.794;2024-01-15T08:46:34;1.70;99.90
15969;DHT22;8085;53.472;9.794;2024-01-15T08:49:08;1.70;99.90
15969;DHT22;8085;53.472;9.794;2024-01-15T08:51:41;1.80;99.90
15969;DHT22;8085;53.472;9.794;2024-01-15T08:54:08;1.80;99.90
15969;DHT22;8085;53.472;9.794;2024-01-15T08:56:37;1.70;99.90
15969;DHT22;8085;53.472;9.794;2024-01-15T08:59:04;1.80;99.90
15969;DHT22;8085;53.472;9.794;2024-01-15T09:01:31;1.80;99.90
15969;DHT22;8085;53.472;9.794;2024-01-15T09:04:03;1.80;99.90
15969;DHT22;8085;53.472;9.794;2024-01-15T09:06:30;1.80;99.90
15969;DHT22;8085;53.472;9.794;2024-01-15T09:08:57;1.80;99.90
15969;DHT22;8085;53.472;9.794;2024-01-15T09:11:24;2.00;99.90
15969;DHT22;8085;53.472;9.794;2024-01-15T09:13:52;1.90;99.90
15969;DHT22;8085;53.472;9.794;2024-01-15T09:16:19;1.90;99.90
15969;DHT22;8085;53.472;9.794;2024-01-15T09:18:48;1.90;99.90
15969;DHT22;8085;53.472;9.794;2024-01-15T09:21:15;1.90;99.90
15969;DHT22;8085;53.472;9.794;2024-01-15T09:23:42;2.00;99.90
15969;DHT22;8085;53.472;9.794;2024-01-15T09:26:11;2.00;99.90
15969;DHT22;8085;53.472;9.794;2024-01-15T09:28:38;2.00;99.90
15969;DHT22;8085;53.472;9.794;2024-01-15T09:31:18;2.00;99.90
15969;DHT22;8085;53.472;9.794;2024-01-15T09:33:48;2.00;99.90
15969;DHT22;8085;53.472;9.794;2024-01-15T09:36:17;2.00;99.90
15969;DHT22;8085;53.472;9.794;2024-01-15T09:38:44;2.10;99.90
15969;DHT22;8085;53.472;9.794;2024-01-15T09:41:11;2.00;99.90
15969;DHT22;8085;53.472;9.794;2024-01-15T09:43:43;2.10;99.90
15969;DHT22;8085;53.472;9.794;2024-01-15T09:46:11;2.00;99.90
15969;DHT22;8085;53.472;9.794;2024-01-15T09:48:39;2.00;99.90
15969;DHT22;8085;53.472;9.794;2024-01-15T09:51:08;2.00;99.90
15969;DHT22;8085;53.472;9.794;2024-01-15T09:53:36;2.10;99.90
15969;DHT22;8085;53.472;9.794;2024-01-15T09:56:04;2.00;99.90
15969;DHT22;8085;53.472;9.794;2024-01-15T09:58:32;2.00;99.90
15969;DHT22;8085;53.472;9.794;2024-01-15T10:01:00;2.00;99.90
15969;DHT22;8085;53.472;9.794;2024-01-15T10:03:30;2.00;99.90
15969;DHT22;8085;53.472;9.794;2024-01-15T10:05:59;2.00;99.90
15969;DHT22;8085;53.472;9.794;2024-01-15T10:08:30;2.00;99.90
15969;DHT22;8085;53.472;9.794;2024-01-15T10:11:02;2.00;99.90
15969;DHT22;8085;53.472;9.794;2024-01-15T10:13:30;2.10;99.90
15969;DHT22;8085;53.472;9.794;2024-01-15T10:15:57;2.10;99.90
15969;DHT22;8085;53.472;9.794;2024-01-15T10:18:25;2.10;99.90
15969;DHT22;8085;53.472;9.794;2024-01-15T10:21:10;2.00;99.90
15969;DHT22;8085;53.472;9.794;2024-01-15T10:23:41;2.00;99.90
15969;DHT22;8085;53.472;9.794;2024-01-15T10:26:08;1.90;99.90
15969;DHT22;8085;53.472;9.794;2024-01-15T10:28:40;1.90;99.90
15969;DHT22;8085;53.472;9.794;2024-01-15T10:31:08;1.80;99.90
15969;DHT22;8085;53.472;9.794;2024-01-15T10:33:37;1.80;99.90
15969;DHT22;8085;53.472;9.794;2024-01-15T10:36:20;1.70;99.90
15969;DHT22;8085;53.472;9.794;2024-01-15T10:38:52;1.60;99.90
15969;DHT22;8085;53.472;9.794;2024-01-15T10:41:25;1.60;99.90
15969;DHT22;8085;53.472;9.794;2024-01-15T10:43:55;1.60;99.90
15969;DHT22;8085;53.472;9.794;2024-01-15T10:46:22;1.60;99.90
15969;DHT22;8085;53.472;9.794;2024-01-15T10:48:49;1.60;99.90
15969;DHT22;8085;53.472;9.794;2024-01-15T10:51:18;1.60;99.90
15969;DHT22;8085;53.472;9.794;2024-01-15T10:53:45;1.70;99.90
15969;DHT22;8085;53.472;9.794;2024-01-15T10:56:12;1.70;99.90
15969;DHT22;8085;53.472;9.794;2024-01-15T10:58:40;1.70;99.90
15969;DHT22;8085;53.472;9.794;2024-01-15T11:01:08;1.70;99.90
15969;DHT22;8085;53.472;9.794;2024-01-15T11:03:36;1.80;99.90
15969;DHT22;8085;53.472;9.794;2024-01-15T11:06:03;1.80;99.90
15969;DHT22;8085;53.472;9.794;2024-01-15T11:08:44;1.80;99.90
15969;DHT22;8085;53.472;9.794;2024-01-15T11:11:11;1.70;99.90
15969;DHT22;8085;53.472;9.794;2024-01-15T11:13:41;1.70;99.90
15969;DHT22;8085;53.472;9.794;2024-01-15T11:16:10;1.60;99.90
15969;DHT22;8085;53.472;9.794;2024-01-15T11:18:40;1.50;99.90
15969;DHT22;8085;53.472;9.794;2024-01-15T11:21:26;1.30;99.90
15969;DHT22;8085;53.472;9.794;2024-01-15T11:23:55;1.20;99.90
15969;DHT22;8085;53.472;9.794;2024-01-15T11:26:36;1.20;99.90
15969;DHT22;8085;53.472;9.794;2024-01-15T11:29:04;1.10;99.90
15969;DHT22;8085;53.472;9.794;2024-01-15T11:32:01;1.10;99.90
15969;DHT22;8085;53.472;9.794;2024-01-15T11:34:55;1.00;99.90
15969;DHT22;8085;53.472;9.794;2024-01-15T11:37:28;1.00;99.90
15969;DHT22;8085;53.472;9.794;2024-01-15T11:40:02;1.00;99.90
15969;DHT22;8085;53.472;9.794;2024-01-15T11:42:30;1.00;99.90
15969;DHT22;8085;53.472;9.794;2024-01-15T11:44:57;1.10;99.90
15969;DHT22;8085;53.472;9.794;2024-01-15T11:47:50;1.10;99.90
15969;DHT22;8085;53.472;9.794;2024-01-15T11:50:21;1.10;99.90
15969;DHT22;8085;53.472;9.794;2024-01-15T11:52:55;1.20;99.90
15969;DHT22;8085;53.472;9.794;2024-01-15T11:55:40;1.20;99.90
15969;DHT22;8085;53.472;9.794;2024-01-15T11:58:08;1.20;99.90
15969;DHT22;8085;53.472;9.794;2024-01-15T12:00:40;1.20;99.90
15969;DHT22;8085;53.472;9.794;2024-01-15T12:03:08;1.10;99.90
15969;DHT22;8085;53.472;9.794;2024-01-15T12:05:38;1.10;99.90
15969;DHT22;8085;53.472;9.794;2024-01-15T12:08:05;1.00;99.90
15969;DHT22;8085;53.472;9.794;2024-01-15T12:10:36;1.00;99.90
15969;DHT22;8085;53.472;9.794;2024-01-15T12:13:08;0.90;99.90
15969;DHT22;8085;53.472;9.794;2024-01-15T12:15:36;0.90;99.90
15969;DHT22;8085;53.472;9.794;2024-01-15T12:18:04;0.90;99.90
15969;DHT22;8085;53.472;9.794;2024-01-15T12:20:32;1.00;99.90
15969;DHT22;8085;53.472;9.794;2024-01-15T12:23:00;1.00;99.90
15969;DHT22;8085;53.472;9.794;2024-01-15T12:25:29;0.90;99.90
15969;DHT22;8085;53.472;9.794;2024-01-15T12:27:57;0.90;99.90
15969;DHT22;8085;53.472;9.794;2024-01-15T12:30:26;0.90;99.90
15969;DHT22;8085;53.472;9.794;2024-01-15T12:32:53;1.00;99.90
15969;DHT22;8085;53.472;9.794;2024-01-15T12:35:21;1.00;99.90
15969;DHT22;8085;53.472;9.794;2024-01-15T12:37:48;1.00;99.90
15969;DHT22;8085;53.472;9.794;2024-01-15T12:40:23;1.00;99.90
15969;DHT22;8085;53.472;9.794;2024-01-15T12:42:50;1.10;99.90
15969;DHT22;8085;53.472;9.794;2024-01-15T12:45:17;1.10;99.90
15969;DHT22;8085;53.472;9.794;2024-01-15T12:47:46;1.10;99.90
15969;DHT22;8085;53.472;9.794;2024-01-15T12:50:13;1.10;99.90
15969;DHT22;8085;53.472;9.794;2024-01-15T12:52:41;1.10;99.90
15969;DHT22;8085;53.472;9.794;2024-01-15T12:55:09;1.10;99.90
15969;DHT22;8085;53.472;9.794;2024-01-15T12:57:37;1.10;99.90
15969;DHT22;8085;53.472;9.794;2024-01-15T13:00:05;1.10;99.90
15969;DHT22;8085;53.472;9.794;2024-01-15T13:02:34;1.10;99.90
15969;DHT22;8085;53.472;9.794;2024-01-15T13:05:03;1.10;99.90
15969;DHT22;8085;53.472;9.794;2024-01-15T13:07:31;1.10;99.90
15969;DHT22;8085;53.472;9.794;2024-01-15T13:09:58;1.10;99.90
15969;DHT22;8085;53.472;9.794;2024-01-15T13:12:25;1.10;99.90
15969;DHT22;8085;53.472;9.794;2024-01-15T13:14:52;1.10;99.90
15969;DHT22;8085;53.472;9.794;2024-01-15T13:17:18;1.10;99.90
15969;DHT22;8085;53.472;9.794;2024-01-15T13:19:46;1.00;99.90
15969;DHT22;8085;53.472;9.794;2024-01-15T13:22:15;1.20;99.90
15969;DHT22;8085;53.472;9.794;2024-01-15T13:24:42;1.10;99.90
15969;DHT22;8085;53.472;9.794;2024-01-15T13:27:09;1.10;99.90
15969;DHT22;8085;53.472;9.794;2024-01-15T13:29:36;1.10;99.90
15969;DHT22;8085;53.472;9.794;2024-01-15T13:32:03;1.10;99.90
15969;DHT22;8085;53.472;9.794;2024-01-15T13:34:30;1.10;99.90
15969;DHT22;8085;53.472;9.794;2024-01-15T13:36:57;1.20;99.90
15969;DHT22;8085;53.472;9.794;2024-01-15T13:39:25;1.20;99.90
15969;DHT22;8085;53.472;9.794;2024-01-15T13:41:52;1.20;99.90
15969;DHT22;8085;53.472;9.794;2024-01-15T13:44:19;1.20;99.90
15969;DHT22;8085;53.472;9.794;2024-01-15T13:46:46;1.20;99.90
15969;DHT22;8085;53.472;9.794;2024-01-15T13:49:13;1.20;99.90
15969;DHT22;8085;53.472;9.794;2024-01-15T13:51:55;1.30;99.90
15969;DHT22;8085;53.472;9.794;2024-01-15T13:54:22;1.20;99.90
15969;DHT22;8085;53.472;9.794;2024-01-15T13:56:51;1.10;99.90
15969;DHT22;8085;53.472;9.794;2024-01-15T13:59:18;1.10;99.90
15969;DHT22;8085;53.472;9.794;2024-01-15T14:01:44;1.10;99.90
15969;DHT22;8085;53.472;9.794;2024-01-15T14:04:12;1.00;99.90
15969;DHT22;8085;53.472;9.794;2024-01-15T14:06:39;1.00;99.90
15969;DHT22;8085;53.472;9.794;2024-01-15T14:09:06;1.00;99.90
15969;DHT22;8085;53.472;9.794;2024-01-15T14:11:35;1.00;99.90
15969;DHT22;8085;53.472;9.794;2024-01-15T14:14:04;1.00;99.90
15969;DHT22;8085;53.472;9.794;2024-01-15T14:16:33;0.90;99.90
15969;DHT22;8085;53.472;9.794;2024-01-15T14:19:00;0.90;99.90
15969;DHT22;8085;53.472;9.794;2024-01-15T14:21:28;0.90;99.90
15969;DHT22;8085;53.472;9.794;2024-01-15T14:23:55;0.90;99.90
15969;DHT22;8085;53.472;9.794;2024-01-15T14:26:21;0.90;99.90
15969;DHT22;8085;53.472;9.794;2024-01-15T14:28:48;0.90;99.90
15969;DHT22;8085;53.472;9.794;2024-01-15T14:31:16;1.00;99.90
15969;DHT22;8085;53.472;9.794;2024-01-15T14:33:43;1.00;99.90
15969;DHT22;8085;53.472;9.794;2024-01-15T14:36:10;1.00;99.90
15969;DHT22;8085;53.472;9.794;2024-01-15T14:38:37;1.00;99.90
15969;DHT22;8085;53.472;9.794;2024-01-15T14:41:04;1.10;99.90
15969;DHT22;8085;53.472;9.794;2024-01-15T14:43:31;1.00;99.90
15969;DHT22;8085;53.472;9.794;2024-01-15T14:45:58;1.10;99.90
15969;DHT22;8085;53.472;9.794;2024-01-15T14:48:27;1.10;99.90
15969;DHT22;8085;53.472;9.794;2024-01-15T14:50:53;1.10;99.90
15969;DHT22;8085;53.472;9.794;2024-01-15T14:53:20;1.20;99.90
15969;DHT22;8085;53.472;9.794;2024-01-15T14:55:49;1.10;99.90
15969;DHT22;8085;53.472;9.794;2024-01-15T14:58:16;1.10;99.90
15969;DHT22;8085;53.472;9.794;2024-01-15T15:00:43;1.10;99.90
15969;DHT22;8085;53.472;9.794;2024-01-15T15:03:11;1.00;99.90
15969;DHT22;8085;53.472;9.794;2024-01-15T15:05:40;1.00;99.90
15969;DHT22;8085;53.472;9.794;2024-01-15T15:08:07;1.00;99.90
15969;DHT22;8085;53.472;9.794;2024-01-15T15:10:35;1.00;99.90
15969;DHT22;8085;53.472;9.794;2024-01-15T15:13:02;1.10;99.90
15969;DHT22;8085;53.472;9.794;2024-01-15T15:15:29;1.00;99.90
15969;DHT22;8085;53.472;9.794;2024-01-15T15:17:55;1.00;99.90
15969;DHT22;8085;53.472;9.794;2024-01-15T15:20:22;0.90;99.90
15969;DHT22;8085;53.472;9.794;2024-01-15T15:22:50;0.90;99.90
15969;DHT22;8085;53.472;9.794;2024-01-15T15:25:20;0.90;99.90
15969;DHT22;8085;53.472;9.794;2024-01-15T15:27:47;0.90;99.90
15969;DHT22;8085;53.472;9.794;2024-01-15T15:30:14;0.90;99.90
15969;DHT22;8085;53.472;9.794;2024-01-15T15:32:41;0.80;99.90
15969;DHT22;8085;53.472;9.794;2024-01-15T15:35:08;0.90;99.90
15969;DHT22;8085;53.472;9.794;2024-01-15T15:37:36;0.90;99.90
15969;DHT22;8085;53.472;9.794;2024-01-15T15:40:05;0.90;99.90
15969;DHT22;8085;53.472;9.794;2024-01-15T15:42:34;0.90;99.90
15969;DHT22;8085;53.472;9.794;2024-01-15T15:45:01;0.90;99.90
15969;DHT22;8085;53.472;9.794;2024-01-15T15:47:28;0.80;99.90
15969;DHT22;8085;53.472;9.794;2024-01-15T15:49:55;0.90;99.90
15969;DHT22;8085;53.472;9.794;2024-01-15T15:52:21;0.90;99.90
15969;DHT22;8085;53.472;9.794;2024-01-15T15:54:49;0.80;99.90
15969;DHT22;8085;53.472;9.794;2024-01-15T15:57:17;0.80;99.90
15969;DHT22;8085;53.472;9.794;2024-01-15T15:59:43;0.80;99.90
15969;DHT22;8085;53.472;9.794;2024-01-15T16:02:10;0.80;99.90
15969;DHT22;8085;53.472;9.794;2024-01-15T16:04:36;0.80;99.90
15969;DHT22;8085;53.472;9.794;2024-01-15T16:07:03;0.80;99.90
15969;DHT22;8085;53.472;9.794;2024-01-15T16:09:35;0.70;99.90
15969;DHT22;8085;53.472;9.794;2024-01-15T16:12:02;0.80;99.90
15969;DHT22;8085;53.472;9.794;2024-01-15T16:14:30;0.70;99.90
15969;DHT22;8085;53.472;9.794;2024-01-15T16:16:57;0.70;99.90
15969;DHT22;8085;53.472;9.794;2024-01-15T16:19:24;0.70;99.90
15969;DHT22;8085;53.472;9.794;2024-01-15T16:21:51;0.60;99.90
15969;DHT22;8085;53.472;9.794;2024-01-15T16:24:19;0.60;99.90
15969;DHT22;8085;53.472;9.794;2024-01-15T16:26:47;0.60;99.90
15969;DHT22;8085;53.472;9.794;2024-01-15T16:29:14;0.60;99.90